sensor_id;sensor_type;location;lat;lon;timestamp;P1;durP1;ratioP1;P2;durP2;ratioP2
27517;SDS011;14962;52.482;13.142;2022-07-29T00:01:35;3.08;;;1.58;;
27517;SDS011;14962;52.482;13.142;2022-07-29T00:04:01;3.75;;;1.70;;
27517;SDS011;14962;52.482;13.142;2022-07-29T00:06:27;4.15;;;1.98;;
27517;SDS011;14962;52.482;13.142;2022-07-29T00:08:53;7.13;;;2.00;;
27517;SDS011;14962;52.482;13.142;2022-07-29T00:11:20;4.43;;;1.70;;
27517;SDS011;14962;52.482;13.142;2022-07-29T00:13:46;6.38;;;1.92;;
27517;SDS011;14962;52.482;13.142;2022-07-29T00:16:12;4.40;;;1.73;;
27517;SDS011;14962;52.482;13.142;2022-07-29T00:18:38;6.35;;;1.95;;
27517;SDS011;14962;52.482;13.142;2022-07-29T00:21:04;8.20;;;2.55;;
27517;SDS011;14962;52.482;13.142;2022-07-29T00:23:30;4.30;;;1.92;;
27517;SDS011;14962;52.482;13.142;2022-07-29T00:25:56;4.40;;;1.80;;
27517;SDS011;14962;52.482;13.142;2022-07-29T00:28:22;13.38;;;2.00;;
27517;SDS011;14962;52.482;13.142;2022-07-29T00:30:48;4.25;;;1.90;;
27517;SDS011;14962;52.482;13.142;2022-07-29T00:33:14;2.90;;;1.90;;
27517;SDS011;14962;52.482;13.142;2022-07-29T00:35:40;9.82;;;2.35;;
27517;SDS011;14962;52.482;13.142;2022-07-29T00:38:09;6.07;;;2.30;;
27517;SDS011;14962;52.482;13.142;2022-07-29T00:40:35;2.83;;;1.90;;
27517;SDS011;14962;52.482;13.142;2022-07-29T00:43:01;5.93;;;2.42;;
27517;SDS011;14962;52.482;13.142;2022-07-29T00:45:27;4.20;;;2.50;;
27517;SDS011;14962;52.482;13.142;2022-07-29T00:47:54;4.03;;;2.28;;
27517;SDS011;14962;52.482;13.142;2022-07-29T00:50:20;5.65;;;2.03;;
27517;SDS011;14962;52.482;13.142;2022-07-29T00:52:46;8.45;;;2.92;;
27517;SDS011;14962;52.482;13.142;2022-07-29T00:55:13;6.93;;;2.35;;
27517;SDS011;14962;52.482;13.142;2022-07-29T00:57:40;5.97;;;2.50;;
27517;SDS011;14962;52.482;13.142;2022-07-29T01:00:07;4.53;;;1.90;;
27517;SDS011;14962;52.482;13.142;2022-07-29T01:02:34;3.05;;;1.88;;
27517;SDS011;14962;52.482;13.142;2022-07-29T01:05:02;8.27;;;2.40;;
27517;SDS011;14962;52.482;13.142;2022-07-29T01:07:28;5.00;;;2.45;;
27517;SDS011;14962;52.482;13.142;2022-07-29T01:09:55;4.80;;;2.40;;
27517;SDS011;14962;52.482;13.142;2022-07-29T01:12:23;4.82;;;2.63;;
27517;SDS011;14962;52.482;13.142;2022-07-29T01:14:49;5.95;;;2.85;;
27517;SDS011;14962;52.482;13.142;2022-07-29T01:17:21;5.55;;;2.40;;
27517;SDS011;14962;52.482;13.142;2022-07-29T01:19:59;4.50;;;2.38;;
27517;SDS011;14962;52.482;13.142;2022-07-29T01:22:28;8.73;;;2.80;;
27517;SDS011;14962;52.482;13.142;2022-07-29T01:28:00;5.78;;;3.20;;
27517;SDS011;14962;52.482;13.142;2022-07-29T01:30:27;6.32;;;3.20;;
27517;SDS011;14962;52.482;13.142;2022-07-29T01:32:55;6.05;;;2.90;;
27517;SDS011;14962;52.482;13.142;2022-07-29T01:35:26;5.97;;;3.45;;
27517;SDS011;14962;52.482;13.142;2022-07-29T01:38:12;5.97;;;3.05;;
27517;SDS011;14962;52.482;13.142;2022-07-29T01:40:43;7.78;;;3.53;;
27517;SDS011;14962;52.482;13.142;2022-07-29T01:43:14;10.65;;;2.97;;
27517;SDS011;14962;52.482;13.142;2022-07-29T01:45:45;11.38;;;3.55;;
27517;SDS011;14962;52.482;13.142;2022-07-29T01:48:16;10.88;;;3.20;;
27517;SDS011;14962;52.482;13.142;2022-07-29T01:50:48;5.43;;;3.30;;
27517;SDS011;14962;52.482;13.142;2022-07-29T01:53:17;6.00;;;3.38;;
27517;SDS011;14962;52.482;13.142;2022-07-29T01:55:44;7.03;;;3.50;;
27517;SDS011;14962;52.482;13.142;2022-07-29T01:58:10;8.13;;;3.63;;
27517;SDS011;14962;52.482;13.142;2022-07-29T02:00:37;7.68;;;3.42;;
27517;SDS011;14962;52.482;13.142;2022-07-29T02:03:06;9.25;;;3.67;;
27517;SDS011;14962;52.482;13.142;2022-07-29T02:05:33;8.48;;;3.42;;
27517;SDS011;14962;52.482;13.142;2022-07-29T02:08:00;9.65;;;3.60;;
27517;SDS011;14962;52.482;13.142;2022-07-29T02:10:28;8.27;;;3.33;;
27517;SDS011;14962;52.482;13.142;2022-07-29T02:12:55;8.98;;;3.28;;
27517;SDS011;14962;52.482;13.142;2022-07-29T02:15:23;10.50;;;3.47;;
27517;SDS011;14962;52.482;13.142;2022-07-29T02:17:51;10.23;;;3.20;;
27517;SDS011;14962;52.482;13.142;2022-07-29T02:20:19;9.02;;;3.55;;
27517;SDS011;14962;52.482;13.142;2022-07-29T02:22:45;5.88;;;3.33;;
27517;SDS011;14962;52.482;13.142;2022-07-29T02:25:12;11.05;;;3.40;;
27517;SDS011;14962;52.482;13.142;2022-07-29T02:27:39;10.82;;;4.05;;
27517;SDS011;14962;52.482;13.142;2022-07-29T02:30:06;7.70;;;3.92;;
27517;SDS011;14962;52.482;13.142;2022-07-29T02:32:34;7.45;;;3.30;;
27517;SDS011;14962;52.482;13.142;2022-07-29T02:35:01;6.55;;;3.30;;
27517;SDS011;14962;52.482;13.142;2022-07-29T02:37:27;6.70;;;2.80;;
27517;SDS011;14962;52.482;13.142;2022-07-29T02:39:54;5.70;;;2.95;;
27517;SDS011;14962;52.482;13.142;2022-07-29T02:42:21;7.43;;;3.20;;
27517;SDS011;14962;52.482;13.142;2022-07-29T02:44:47;10.10;;;3.45;;
27517;SDS011;14962;52.482;13.142;2022-07-29T02:47:16;6.90;;;3.08;;
27517;SDS011;14962;52.482;13.142;2022-07-29T02:49:48;5.65;;;3.00;;
27517;SDS011;14962;52.482;13.142;2022-07-29T02:55:05;7.35;;;3.25;;
27517;SDS011;14962;52.482;13.142;2022-07-29T02:57:43;4.82;;;2.85;;
27517;SDS011;14962;52.482;13.142;2022-07-29T03:00:10;6.45;;;3.38;;
27517;SDS011;14962;52.482;13.142;2022-07-29T03:02:37;5.82;;;3.10;;
27517;SDS011;14962;52.482;13.142;2022-07-29T03:05:04;10.90;;;3.03;;
27517;SDS011;14962;52.482;13.142;2022-07-29T03:07:32;8.63;;;3.83;;
27517;SDS011;14962;52.482;13.142;2022-07-29T03:09:59;9.82;;;2.85;;
27517;SDS011;14962;52.482;13.142;2022-07-29T03:12:26;6.53;;;3.42;;
27517;SDS011;14962;52.482;13.142;2022-07-29T03:14:52;7.93;;;2.97;;
27517;SDS011;14962;52.482;13.142;2022-07-29T03:17:18;6.45;;;3.28;;
27517;SDS011;14962;52.482;13.142;2022-07-29T03:19:45;9.18;;;3.20;;
27517;SDS011;14962;52.482;13.142;2022-07-29T03:22:11;5.72;;;3.00;;
27517;SDS011;14962;52.482;13.142;2022-07-29T03:24:37;7.90;;;3.20;;
27517;SDS011;14962;52.482;13.142;2022-07-29T03:27:03;11.30;;;3.92;;
27517;SDS011;14962;52.482;13.142;2022-07-29T03:29:30;5.65;;;3.00;;
27517;SDS011;14962;52.482;13.142;2022-07-29T03:31:57;10.05;;;3.40;;
27517;SDS011;14962;52.482;13.142;2022-07-29T03:34:23;5.30;;;2.85;;
27517;SDS011;14962;52.482;13.142;2022-07-29T03:36:49;9.52;;;3.38;;
27517;SDS011;14962;52.482;13.142;2022-07-29T03:39:17;7.05;;;3.10;;
27517;SDS011;14962;52.482;13.142;2022-07-29T03:41:44;6.82;;;3.10;;
27517;SDS011;14962;52.482;13.142;2022-07-29T03:44:11;7.72;;;3.05;;
27517;SDS011;14962;52.482;13.142;2022-07-29T03:46:37;6.90;;;3.55;;
27517;SDS011;14962;52.482;13.142;2022-07-29T03:49:04;6.68;;;3.30;;
27517;SDS011;14962;52.482;13.142;2022-07-29T03:51:32;6.82;;;3.40;;
27517;SDS011;14962;52.482;13.142;2022-07-29T03:53:58;8.35;;;3.33;;
27517;SDS011;14962;52.482;13.142;2022-07-29T03:56:25;5.10;;;3.17;;
27517;SDS011;14962;52.482;13.142;2022-07-29T03:58:53;7.22;;;3.17;;
27517;SDS011;14962;52.482;13.142;2022-07-29T04:01:19;7.65;;;3.60;;
27517;SDS011;14962;52.482;13.142;2022-07-29T04:03:46;9.73;;;3.15;;
27517;SDS011;14962;52.482;13.142;2022-07-29T04:06:12;6.43;;;2.80;;
27517;SDS011;14962;52.482;13.142;2022-07-29T04:08:38;6.78;;;3.47;;
27517;SDS011;14962;52.482;13.142;2022-07-29T04:11:04;11.27;;;3.38;;
27517;SDS011;14962;52.482;13.142;2022-07-29T04:13:31;5.28;;;2.90;;
27517;SDS011;14962;52.482;13.142;2022-07-29T04:15:58;8.80;;;3.22;;
27517;SDS011;14962;52.482;13.142;2022-07-29T04:18:24;8.70;;;3.40;;
27517;SDS011;14962;52.482;13.142;2022-07-29T04:20:50;6.22;;;3.10;;
27517;SDS011;14962;52.482;13.142;2022-07-29T04:23:16;6.28;;;3.03;;
27517;SDS011;14962;52.482;13.142;2022-07-29T04:25:42;9.13;;;3.15;;
27517;SDS011;14962;52.482;13.142;2022-07-29T04:28:08;9.23;;;2.70;;
27517;SDS011;14962;52.482;13.142;2022-07-29T04:30:35;6.70;;;2.78;;
27517;SDS011;14962;52.482;13.142;2022-07-29T04:33:02;11.18;;;3.70;;
27517;SDS011;14962;52.482;13.142;2022-07-29T04:35:28;5.85;;;2.80;;
27517;SDS011;14962;52.482;13.142;2022-07-29T04:37:54;8.07;;;2.92;;
27517;SDS011;14962;52.482;13.142;2022-07-29T04:40:20;5.47;;;2.78;;
27517;SDS011;14962;52.482;13.142;2022-07-29T04:42:46;6.95;;;3.33;;
27517;SDS011;14962;52.482;13.142;2022-07-29T04:45:12;7.68;;;2.78;;
27517;SDS011;14962;52.482;13.142;2022-07-29T04:47:38;6.00;;;3.25;;
27517;SDS011;14962;52.482;13.142;2022-07-29T04:50:05;10.90;;;3.30;;
27517;SDS011;14962;52.482;13.142;2022-07-29T04:52:32;6.93;;;2.95;;
27517;SDS011;14962;52.482;13.142;2022-07-29T04:54:59;8.05;;;3.03;;
27517;SDS011;14962;52.482;13.142;2022-07-29T04:57:25;5.63;;;2.63;;
27517;SDS011;14962;52.482;13.142;2022-07-29T04:59:51;7.18;;;2.50;;
27517;SDS011;14962;52.482;13.142;2022-07-29T05:02:17;6.32;;;3.13;;
27517;SDS011;14962;52.482;13.142;2022-07-29T05:04:43;5.20;;;2.60;;
27517;SDS011;14962;52.482;13.142;2022-07-29T05:07:09;4.47;;;2.85;;
27517;SDS011;14962;52.482;13.142;2022-07-29T05:09:35;9.88;;;2.95;;
27517;SDS011;14962;52.482;13.142;2022-07-29T05:12:01;6.95;;;3.25;;
27517;SDS011;14962;52.482;13.142;2022-07-29T05:14:27;8.55;;;2.67;;
27517;SDS011;14962;52.482;13.142;2022-07-29T05:16:53;7.50;;;3.13;;
27517;SDS011;14962;52.482;13.142;2022-07-29T05:19:21;7.38;;;2.55;;
27517;SDS011;14962;52.482;13.142;2022-07-29T05:21:47;7.68;;;2.35;;
27517;SDS011;14962;52.482;13.142;2022-07-29T05:24:13;7.00;;;3.17;;
27517;SDS011;14962;52.482;13.142;2022-07-29T05:26:39;3.60;;;2.22;;
27517;SDS011;14962;52.482;13.142;2022-07-29T05:29:05;4.82;;;2.25;;
27517;SDS011;14962;52.482;13.142;2022-07-29T05:31:32;6.30;;;2.38;;
27517;SDS011;14962;52.482;13.142;2022-07-29T05:33:58;4.07;;;2.50;;
27517;SDS011;14962;52.482;13.142;2022-07-29T05:36:24;7.75;;;2.42;;
27517;SDS011;14962;52.482;13.142;2022-07-29T05:38:50;4.60;;;2.15;;
27517;SDS011;14962;52.482;13.142;2022-07-29T05:41:17;6.38;;;2.50;;
27517;SDS011;14962;52.482;13.142;2022-07-29T05:43:43;4.63;;;2.58;;
27517;SDS011;14962;52.482;13.142;2022-07-29T05:46:09;5.97;;;2.80;;
27517;SDS011;14962;52.482;13.142;2022-07-29T05:48:35;5.43;;;2.60;;
27517;SDS011;14962;52.482;13.142;2022-07-29T05:51:01;5.13;;;2.47;;
27517;SDS011;14962;52.482;13.142;2022-07-29T05:53:27;8.45;;;2.60;;
27517;SDS011;14962;52.482;13.142;2022-07-29T05:55:53;6.68;;;2.70;;
27517;SDS011;14962;52.482;13.142;2022-07-29T05:58:19;5.82;;;2.40;;
27517;SDS011;14962;52.482;13.142;2022-07-29T06:00:45;8.05;;;2.97;;
27517;SDS011;14962;52.482;13.142;2022-07-29T06:03:11;5.40;;;2.53;;
27517;SDS011;14962;52.482;13.142;2022-07-29T06:05:38;6.95;;;2.55;;
27517;SDS011;14962;52.482;13.142;2022-07-29T06:08:04;4.20;;;2.25;;
27517;SDS011;14962;52.482;13.142;2022-07-29T06:10:36;8.38;;;2.50;;
27517;SDS011;14962;52.482;13.142;2022-07-29T06:13:02;5.63;;;2.50;;
27517;SDS011;14962;52.482;13.142;2022-07-29T06:15:28;6.50;;;3.00;;
27517;SDS011;14962;52.482;13.142;2022-07-29T06:17:54;7.78;;;2.17;;
27517;SDS011;14962;52.482;13.142;2022-07-29T06:20:20;8.13;;;2.78;;
27517;SDS011;14962;52.482;13.142;2022-07-29T06:22:45;5.38;;;2.10;;
27517;SDS011;14962;52.482;13.142;2022-07-29T06:25:12;5.70;;;2.25;;
27517;SDS011;14962;52.482;13.142;2022-07-29T06:27:38;5.82;;;2.67;;
27517;SDS011;14962;52.482;13.142;2022-07-29T06:30:04;7.90;;;2.45;;
27517;SDS011;14962;52.482;13.142;2022-07-29T06:32:32;6.10;;;2.20;;
27517;SDS011;14962;52.482;13.142;2022-07-29T06:34:58;6.05;;;2.20;;
27517;SDS011;14962;52.482;13.142;2022-07-29T06:37:24;5.90;;;2.30;;
27517;SDS011;14962;52.482;13.142;2022-07-29T06:39:50;5.72;;;2.13;;
27517;SDS011;14962;52.482;13.142;2022-07-29T06:42:34;8.75;;;2.40;;
27517;SDS011;14962;52.482;13.142;2022-07-29T06:45:03;12.63;;;2.90;;
27517;SDS011;14962;52.482;13.142;2022-07-29T06:47:29;5.25;;;2.10;;
27517;SDS011;14962;52.482;13.142;2022-07-29T06:49:55;5.95;;;2.10;;
27517;SDS011;14962;52.482;13.142;2022-07-29T06:52:21;4.55;;;2.20;;
27517;SDS011;14962;52.482;13.142;2022-07-29T06:54:47;3.20;;;1.80;;
27517;SDS011;14962;52.482;13.142;2022-07-29T06:57:13;8.55;;;2.08;;
27517;SDS011;14962;52.482;13.142;2022-07-29T06:59:39;6.95;;;2.58;;
27517;SDS011;14962;52.482;13.142;2022-07-29T07:02:05;5.55;;;2.10;;
27517;SDS011;14962;52.482;13.142;2022-07-29T07:04:31;10.05;;;2.50;;
27517;SDS011;14962;52.482;13.142;2022-07-29T07:06:58;8.10;;;2.83;;
27517;SDS011;14962;52.482;13.142;2022-07-29T07:09:24;8.07;;;2.00;;
27517;SDS011;14962;52.482;13.142;2022-07-29T07:11:50;9.88;;;2.22;;
27517;SDS011;14962;52.482;13.142;2022-07-29T07:14:16;3.60;;;1.90;;
27517;SDS011;14962;52.482;13.142;2022-07-29T07:16:42;4.72;;;1.70;;
27517;SDS011;14962;52.482;13.142;2022-07-29T07:19:08;3.92;;;1.92;;
27517;SDS011;14962;52.482;13.142;2022-07-29T07:21:34;5.93;;;1.92;;
27517;SDS011;14962;52.482;13.142;2022-07-29T07:24:00;9.68;;;2.25;;
27517;SDS011;14962;52.482;13.142;2022-07-29T07:26:26;3.63;;;1.50;;
27517;SDS011;14962;52.482;13.142;2022-07-29T07:28:52;4.05;;;1.70;;
27517;SDS011;14962;52.482;13.142;2022-07-29T07:31:18;5.30;;;2.30;;
27517;SDS011;14962;52.482;13.142;2022-07-29T07:33:44;6.25;;;2.13;;
27517;SDS011;14962;52.482;13.142;2022-07-29T07:36:11;6.18;;;1.52;;
27517;SDS011;14962;52.482;13.142;2022-07-29T07:38:37;6.43;;;2.05;;
27517;SDS011;14962;52.482;13.142;2022-07-29T07:41:02;6.93;;;1.75;;
27517;SDS011;14962;52.482;13.142;2022-07-29T07:43:28;7.35;;;2.13;;
27517;SDS011;14962;52.482;13.142;2022-07-29T07:45:54;3.42;;;1.83;;
27517;SDS011;14962;52.482;13.142;2022-07-29T07:48:20;4.15;;;1.88;;
27517;SDS011;14962;52.482;13.142;2022-07-29T07:50:46;4.38;;;2.00;;
27517;SDS011;14962;52.482;13.142;2022-07-29T07:53:14;4.38;;;1.23;;
27517;SDS011;14962;52.482;13.142;2022-07-29T07:55:40;5.28;;;1.83;;
27517;SDS011;14962;52.482;13.142;2022-07-29T07:58:07;5.55;;;2.08;;
27517;SDS011;14962;52.482;13.142;2022-07-29T08:00:33;8.65;;;2.08;;
27517;SDS011;14962;52.482;13.142;2022-07-29T08:03:00;5.32;;;2.03;;
27517;SDS011;14962;52.482;13.142;2022-07-29T08:05:26;6.93;;;1.80;;
27517;SDS011;14962;52.482;13.142;2022-07-29T08:07:51;4.22;;;1.83;;
27517;SDS011;14962;52.482;13.142;2022-07-29T08:10:18;7.35;;;2.08;;
27517;SDS011;14962;52.482;13.142;2022-07-29T08:13:07;6.38;;;1.48;;
27517;SDS011;14962;52.482;13.142;2022-07-29T08:15:34;4.25;;;1.73;;
27517;SDS011;14962;52.482;13.142;2022-07-29T08:18:00;8.27;;;1.90;;
27517;SDS011;14962;52.482;13.142;2022-07-29T08:20:26;6.15;;;1.90;;
27517;SDS011;14962;52.482;13.142;2022-07-29T08:22:52;5.75;;;1.65;;
27517;SDS011;14962;52.482;13.142;2022-07-29T08:25:18;7.97;;;1.60;;
27517;SDS011;14962;52.482;13.142;2022-07-29T08:27:45;5.15;;;1.52;;
27517;SDS011;14962;52.482;13.142;2022-07-29T08:30:11;4.20;;;1.58;;
27517;SDS011;14962;52.482;13.142;2022-07-29T08:32:37;4.53;;;1.50;;
27517;SDS011;14962;52.482;13.142;2022-07-29T08:35:04;4.93;;;1.75;;
27517;SDS011;14962;52.482;13.142;2022-07-29T08:37:30;8.95;;;2.05;;
27517;SDS011;14962;52.482;13.142;2022-07-29T08:39:56;3.22;;;1.42;;
27517;SDS011;14962;52.482;13.142;2022-07-29T08:42:22;4.15;;;1.50;;
27517;SDS011;14962;52.482;13.142;2022-07-29T08:44:48;4.93;;;1.20;;
27517;SDS011;14962;52.482;13.142;2022-07-29T08:47:15;3.80;;;1.50;;
27517;SDS011;14962;52.482;13.142;2022-07-29T08:49:41;3.38;;;1.20;;
27517;SDS011;14962;52.482;13.142;2022-07-29T08:52:09;4.57;;;1.33;;
27517;SDS011;14962;52.482;13.142;2022-07-29T08:54:36;5.97;;;1.15;;
27517;SDS011;14962;52.482;13.142;2022-07-29T08:57:02;3.80;;;1.38;;
27517;SDS011;14962;52.482;13.142;2022-07-29T08:59:28;5.78;;;1.50;;
27517;SDS011;14962;52.482;13.142;2022-07-29T09:01:56;9.40;;;2.10;;
27517;SDS011;14962;52.482;13.142;2022-07-29T09:04:25;2.33;;;0.95;;
27517;SDS011;14962;52.482;13.142;2022-07-29T09:06:52;6.45;;;1.52;;
27517;SDS011;14962;52.482;13.142;2022-07-29T09:09:20;3.25;;;1.00;;
27517;SDS011;14962;52.482;13.142;2022-07-29T09:11:46;3.33;;;1.17;;
27517;SDS011;14962;52.482;13.142;2022-07-29T09:14:12;1.90;;;1.02;;
27517;SDS011;14962;52.482;13.142;2022-07-29T09:16:49;4.88;;;1.63;;
27517;SDS011;14962;52.482;13.142;2022-07-29T09:19:19;3.58;;;1.13;;
27517;SDS011;14962;52.482;13.142;2022-07-29T09:21:45;4.30;;;1.25;;
27517;SDS011;14962;52.482;13.142;2022-07-29T09:24:45;4.05;;;1.25;;
27517;SDS011;14962;52.482;13.142;2022-07-29T09:27:23;4.35;;;1.00;;
27517;SDS011;14962;52.482;13.142;2022-07-29T09:32:23;2.60;;;1.15;;
27517;SDS011;14962;52.482;13.142;2022-07-29T09:34:49;4.07;;;1.27;;
27517;SDS011;14962;52.482;13.142;2022-07-29T09:37:27;2.50;;;1.10;;
27517;SDS011;14962;52.482;13.142;2022-07-29T09:39:53;5.70;;;1.42;;
27517;SDS011;14962;52.482;13.142;2022-07-29T09:42:29;3.00;;;1.40;;
27517;SDS011;14962;52.482;13.142;2022-07-29T09:44:57;3.08;;;1.10;;
27517;SDS011;14962;52.482;13.142;2022-07-29T09:47:27;4.22;;;1.10;;
27517;SDS011;14962;52.482;13.142;2022-07-29T09:50:05;2.42;;;1.20;;
27517;SDS011;14962;52.482;13.142;2022-07-29T09:52:31;6.22;;;1.20;;
27517;SDS011;14962;52.482;13.142;2022-07-29T09:55:04;1.85;;;0.90;;
27517;SDS011;14962;52.482;13.142;2022-07-29T10:00:00;2.42;;;1.40;;
27517;SDS011;14962;52.482;13.142;2022-07-29T10:02:27;9.68;;;1.08;;
27517;SDS011;14962;52.482;13.142;2022-07-29T10:04:54;3.38;;;1.40;;
27517;SDS011;14962;52.482;13.142;2022-07-29T10:07:20;3.00;;;0.93;;
27517;SDS011;14962;52.482;13.142;2022-07-29T10:09:52;3.90;;;0.80;;
27517;SDS011;14962;52.482;13.142;2022-07-29T10:12:19;3.85;;;1.20;;
27517;SDS011;14962;52.482;13.142;2022-07-29T10:14:45;2.40;;;1.17;;
27517;SDS011;14962;52.482;13.142;2022-07-29T10:17:11;4.82;;;1.15;;
27517;SDS011;14962;52.482;13.142;2022-07-29T10:19:38;4.45;;;1.35;;
27517;SDS011;14962;52.482;13.142;2022-07-29T10:22:05;5.78;;;1.08;;
27517;SDS011;14962;52.482;13.142;2022-07-29T10:24:32;6.15;;;1.25;;
27517;SDS011;14962;52.482;13.142;2022-07-29T10:26:59;3.15;;;1.15;;
27517;SDS011;14962;52.482;13.142;2022-07-29T10:29:26;2.92;;;1.20;;
27517;SDS011;14962;52.482;13.142;2022-07-29T10:31:55;5.30;;;1.17;;
27517;SDS011;14962;52.482;13.142;2022-07-29T10:34:28;2.20;;;1.10;;
27517;SDS011;14962;52.482;13.142;2022-07-29T10:39:51;3.53;;;1.30;;
27517;SDS011;14962;52.482;13.142;2022-07-29T10:42:21;2.90;;;1.10;;
27517;SDS011;14962;52.482;13.142;2022-07-29T10:44:49;3.55;;;1.15;;
27517;SDS011;14962;52.482;13.142;2022-07-29T10:47:25;5.70;;;1.85;;
27517;SDS011;14962;52.482;13.142;2022-07-29T10:50:04;3.20;;;1.30;;
27517;SDS011;14962;52.482;13.142;2022-07-29T10:55:30;3.53;;;1.15;;
27517;SDS011;14962;52.482;13.142;2022-07-29T10:58:13;4.43;;;1.10;;
27517;SDS011;14962;52.482;13.142;2022-07-29T11:00:39;7.72;;;1.45;;
27517;SDS011;14962;52.482;13.142;2022-07-29T11:03:05;5.15;;;1.25;;
27517;SDS011;14962;52.482;13.142;2022-07-29T11:05:50;3.47;;;1.00;;
27517;SDS011;14962;52.482;13.142;2022-07-29T11:08:17;3.28;;;0.80;;
27517;SDS011;14962;52.482;13.142;2022-07-29T11:10:46;2.47;;;0.88;;
27517;SDS011;14962;52.482;13.142;2022-07-29T11:13:13;2.97;;;1.00;;
27517;SDS011;14962;52.482;13.142;2022-07-29T11:15:58;6.80;;;1.17;;
27517;SDS011;14962;52.482;13.142;2022-07-29T11:18:24;3.35;;;1.08;;
27517;SDS011;14962;52.482;13.142;2022-07-29T11:20:51;2.42;;;0.88;;
27517;SDS011;14962;52.482;13.142;2022-07-29T11:23:24;1.92;;;1.02;;
27517;SDS011;14962;52.482;13.142;2022-07-29T11:26:15;3.63;;;1.20;;
27517;SDS011;14962;52.482;13.142;2022-07-29T11:29:03;2.42;;;0.90;;
27517;SDS011;14962;52.482;13.142;2022-07-29T11:34:17;2.53;;;1.42;;
27517;SDS011;14962;52.482;13.142;2022-07-29T11:39:29;5.00;;;1.20;;
27517;SDS011;14962;52.482;13.142;2022-07-29T11:42:32;2.90;;;1.10;;
27517;SDS011;14962;52.482;13.142;2022-07-29T11:44:53;4.00;;;1.10;;
27517;SDS011;14962;52.482;13.142;2022-07-29T11:47:20;5.10;;;1.15;;
27517;SDS011;14962;52.482;13.142;2022-07-29T11:49:46;3.80;;;1.30;;
27517;SDS011;14962;52.482;13.142;2022-07-29T11:52:12;2.65;;;1.20;;
27517;SDS011;14962;52.482;13.142;2022-07-29T11:54:38;5.68;;;1.60;;
27517;SDS011;14962;52.482;13.142;2022-07-29T11:57:06;1.70;;;1.10;;
27517;SDS011;14962;52.482;13.142;2022-07-29T11:59:38;3.60;;;1.27;;
27517;SDS011;14962;52.482;13.142;2022-07-29T12:02:04;2.63;;;1.13;;
27517;SDS011;14962;52.482;13.142;2022-07-29T12:04:30;2.97;;;1.10;;
27517;SDS011;14962;52.482;13.142;2022-07-29T12:06:56;3.15;;;1.50;;
27517;SDS011;14962;52.482;13.142;2022-07-29T12:09:22;3.63;;;1.52;;
27517;SDS011;14962;52.482;13.142;2022-07-29T12:11:49;2.75;;;0.90;;
27517;SDS011;14962;52.482;13.142;2022-07-29T12:14:27;3.25;;;1.20;;
27517;SDS011;14962;52.482;13.142;2022-07-29T12:16:54;3.50;;;1.40;;
27517;SDS011;14962;52.482;13.142;2022-07-29T12:19:20;4.97;;;1.45;;
27517;SDS011;14962;52.482;13.142;2022-07-29T12:21:46;6.40;;;1.40;;
27517;SDS011;14962;52.482;13.142;2022-07-29T12:24:12;3.90;;;1.00;;
27517;SDS011;14962;52.482;13.142;2022-07-29T12:26:51;4.63;;;1.40;;
27517;SDS011;14962;52.482;13.142;2022-07-29T12:29:18;4.38;;;1.60;;
27517;SDS011;14962;52.482;13.142;2022-07-29T12:31:44;2.00;;;1.20;;
27517;SDS011;14962;52.482;13.142;2022-07-29T12:34:11;6.10;;;1.65;;
27517;SDS011;14962;52.482;13.142;2022-07-29T12:36:37;3.17;;;1.20;;
27517;SDS011;14962;52.482;13.142;2022-07-29T12:39:03;2.47;;;1.70;;
27517;SDS011;14962;52.482;13.142;2022-07-29T12:41:30;3.60;;;1.65;;
27517;SDS011;14962;52.482;13.142;2022-07-29T12:43:56;5.15;;;1.40;;
27517;SDS011;14962;52.482;13.142;2022-07-29T12:46:22;5.78;;;1.55;;
27517;SDS011;14962;52.482;13.142;2022-07-29T12:48:52;4.88;;;2.25;;
27517;SDS011;14962;52.482;13.142;2022-07-29T12:51:35;4.43;;;1.30;;
27517;SDS011;14962;52.482;13.142;2022-07-29T12:54:11;3.83;;;1.48;;
27517;SDS011;14962;52.482;13.142;2022-07-29T12:56:38;4.25;;;1.15;;
27517;SDS011;14962;52.482;13.142;2022-07-29T12:59:11;4.63;;;1.50;;
27517;SDS011;14962;52.482;13.142;2022-07-29T13:01:37;6.13;;;1.30;;
27517;SDS011;14962;52.482;13.142;2022-07-29T13:04:03;7.38;;;1.67;;
27517;SDS011;14962;52.482;13.142;2022-07-29T13:09:06;4.85;;;1.83;;
27517;SDS011;14962;52.482;13.142;2022-07-29T13:11:42;5.07;;;1.20;;
27517;SDS011;14962;52.482;13.142;2022-07-29T13:14:09;6.60;;;1.20;;
27517;SDS011;14962;52.482;13.142;2022-07-29T13:16:36;4.93;;;1.50;;
27517;SDS011;14962;52.482;13.142;2022-07-29T13:19:04;3.35;;;1.30;;
27517;SDS011;14962;52.482;13.142;2022-07-29T13:21:30;2.47;;;1.27;;
27517;SDS011;14962;52.482;13.142;2022-07-29T13:23:56;4.43;;;1.98;;
27517;SDS011;14962;52.482;13.142;2022-07-29T13:26:22;2.47;;;1.10;;
27517;SDS011;14962;52.482;13.142;2022-07-29T13:28:48;1.80;;;1.15;;
27517;SDS011;14962;52.482;13.142;2022-07-29T13:31:14;4.65;;;1.27;;
27517;SDS011;14962;52.482;13.142;2022-07-29T13:33:40;4.72;;;1.40;;
27517;SDS011;14962;52.482;13.142;2022-07-29T13:36:06;5.15;;;1.85;;
27517;SDS011;14962;52.482;13.142;2022-07-29T13:38:32;2.80;;;1.25;;
27517;SDS011;14962;52.482;13.142;2022-07-29T13:40:58;3.80;;;1.27;;
27517;SDS011;14962;52.482;13.142;2022-07-29T13:43:24;2.35;;;1.60;;
27517;SDS011;14962;52.482;13.142;2022-07-29T13:45:50;4.25;;;1.50;;
27517;SDS011;14962;52.482;13.142;2022-07-29T13:48:17;3.58;;;1.20;;
27517;SDS011;14962;52.482;13.142;2022-07-29T13:50:43;5.47;;;1.50;;
27517;SDS011;14962;52.482;13.142;2022-07-29T13:53:10;2.20;;;1.45;;
27517;SDS011;14962;52.482;13.142;2022-07-29T13:55:36;1.95;;;1.20;;
27517;SDS011;14962;52.482;13.142;2022-07-29T13:58:02;3.53;;;1.42;;
27517;SDS011;14962;52.482;13.142;2022-07-29T14:00:28;4.45;;;1.20;;
27517;SDS011;14962;52.482;13.142;2022-07-29T14:02:54;2.90;;;1.30;;
27517;SDS011;14962;52.482;13.142;2022-07-29T14:05:21;6.30;;;1.50;;
27517;SDS011;14962;52.482;13.142;2022-07-29T14:07:47;5.00;;;1.30;;
27517;SDS011;14962;52.482;13.142;2022-07-29T14:10:13;6.45;;;1.60;;
27517;SDS011;14962;52.482;13.142;2022-07-29T14:12:39;4.78;;;1.35;;
27517;SDS011;14962;52.482;13.142;2022-07-29T14:15:07;1.80;;;1.23;;
27517;SDS011;14962;52.482;13.142;2022-07-29T14:17:33;3.58;;;1.10;;
27517;SDS011;14962;52.482;13.142;2022-07-29T14:19:59;5.53;;;1.20;;
27517;SDS011;14962;52.482;13.142;2022-07-29T14:22:25;1.83;;;1.00;;
27517;SDS011;14962;52.482;13.142;2022-07-29T14:24:51;4.57;;;1.23;;
27517;SDS011;14962;52.482;13.142;2022-07-29T14:27:17;7.15;;;1.75;;
27517;SDS011;14962;52.482;13.142;2022-07-29T14:29:43;5.10;;;1.30;;
27517;SDS011;14962;52.482;13.142;2022-07-29T14:32:09;4.50;;;1.20;;
27517;SDS011;14962;52.482;13.142;2022-07-29T14:34:36;4.93;;;0.98;;
27517;SDS011;14962;52.482;13.142;2022-07-29T14:37:02;1.92;;;1.10;;
27517;SDS011;14962;52.482;13.142;2022-07-29T14:39:30;5.15;;;0.93;;
27517;SDS011;14962;52.482;13.142;2022-07-29T14:41:56;6.10;;;1.65;;
27517;SDS011;14962;52.482;13.142;2022-07-29T14:44:22;6.93;;;1.20;;
27517;SDS011;14962;52.482;13.142;2022-07-29T14:46:49;3.40;;;1.20;;
27517;SDS011;14962;52.482;13.142;2022-07-29T14:49:15;2.75;;;1.30;;
27517;SDS011;14962;52.482;13.142;2022-07-29T14:51:41;4.60;;;1.20;;
27517;SDS011;14962;52.482;13.142;2022-07-29T14:54:07;2.22;;;1.10;;
27517;SDS011;14962;52.482;13.142;2022-07-29T14:56:33;2.40;;;1.05;;
27517;SDS011;14962;52.482;13.142;2022-07-29T14:58:59;4.18;;;1.08;;
27517;SDS011;14962;52.482;13.142;2022-07-29T15:01:25;2.55;;;1.20;;